createdAt,value
2022-08-26T00:01:00.279Z,10.70
2022-08-26T00:06:02.171Z,9.95
2022-08-26T00:11:05.620Z,17.02
2022-08-26T00:16:08.982Z,16.27
2022-08-26T00:21:13.287Z,13.25
2022-08-26T00:26:14.990Z,12.38
2022-08-26T00:31:16.769Z,12.52
2022-08-26T00:36:20.322Z,15.68
2022-08-26T00:41:22.228Z,13.27
2022-08-26T00:46:28.863Z,11.55
2022-08-26T00:51:31.352Z,11.40
2022-08-26T00:56:37.459Z,10.73
2022-08-26T01:01:43.372Z,12.35
2022-08-26T01:06:50.508Z,10.35
2022-08-26T01:11:55.937Z,11.77
2022-08-26T01:16:58.374Z,13.63
2022-08-26T01:22:06.366Z,12.60
2022-08-26T01:27:10.831Z,12.23
2022-08-26T01:32:18.415Z,15.45
2022-08-26T01:37:27.545Z,18.65
2022-08-26T01:42:29.371Z,12.45
2022-08-26T01:47:35.407Z,12.90
2022-08-26T01:52:41.212Z,12.82
2022-08-26T01:57:47.459Z,15.52
2022-08-26T02:03:13.218Z,14.63
2022-08-26T02:08:17.490Z,12.57
2022-08-26T02:13:30.009Z,11.75
2022-08-26T02:18:35.011Z,14.60
2022-08-26T02:23:37.574Z,16.03
2022-08-26T02:28:56.198Z,14.13
2022-08-26T02:34:11.611Z,17.42
2022-08-26T02:39:16.921Z,14.43
2022-08-26T02:44:23.736Z,13.80
2022-08-26T02:49:27.883Z,14.73
2022-08-26T02:54:29.753Z,17.90
2022-08-26T02:59:31.920Z,17.52
2022-08-26T03:04:33.838Z,18.27
2022-08-26T03:09:35.654Z,15.02
2022-08-26T03:14:37.664Z,20.02
2022-08-26T03:19:39.771Z,21.98
2022-08-26T03:24:46.031Z,15.95
2022-08-26T03:30:06.712Z,16.42
2022-08-26T03:35:09.082Z,17.13
2022-08-26T03:40:11.517Z,18.00
2022-08-26T03:45:15.361Z,16.08
2022-08-26T03:50:22.663Z,13.38
2022-08-26T03:55:28.036Z,19.33
2022-08-26T04:00:30.109Z,14.43
2022-08-26T04:05:31.717Z,14.35
2022-08-26T04:10:33.344Z,17.33
2022-08-26T04:15:35.015Z,16.92
2022-08-26T04:20:36.656Z,13.27
2022-08-26T04:25:38.274Z,16.52
2022-08-26T04:30:42.408Z,16.92
2022-08-26T04:35:45.172Z,15.38
2022-08-26T04:40:49.470Z,17.70
2022-08-26T04:45:51.194Z,18.20
2022-08-26T04:50:53.250Z,17.80
2022-08-26T04:55:55.421Z,16.27
2022-08-26T05:00:57.167Z,14.27
2022-08-26T05:05:58.811Z,19.00
2022-08-26T05:11:05.080Z,19.23
2022-08-26T05:16:11.567Z,17.60
2022-08-26T05:21:22.144Z,18.63
2022-08-26T05:26:27.714Z,20.30
2022-08-26T05:31:31.903Z,16.70
2022-08-26T05:36:35.335Z,20.33
2022-08-26T05:41:40.938Z,16.85
2022-08-26T05:46:44.569Z,20.77
2022-08-26T05:51:47.685Z,19.73
2022-08-26T05:56:51.028Z,17.63
2022-08-26T06:01:54.707Z,17.55
2022-08-26T06:06:56.898Z,16.00
2022-08-26T06:11:58.771Z,19.05
2022-08-26T06:17:00.760Z,24.05
2022-08-26T06:22:23.608Z,21.55
2022-08-26T06:27:29.402Z,15.05
2022-08-26T06:32:34.166Z,18.10
2022-08-26T06:37:35.771Z,16.75
2022-08-26T06:42:38.080Z,19.67
2022-08-26T06:47:40.980Z,23.00
2022-08-26T06:52:42.722Z,18.50
2022-08-26T06:57:44.352Z,21.58
2022-08-26T07:02:46.232Z,17.38
2022-08-26T07:07:49.184Z,21.48
2022-08-26T07:12:51.419Z,16.30
2022-08-26T07:17:53.040Z,21.20
2022-08-26T07:22:54.671Z,17.15
2022-08-26T07:27:56.399Z,13.07
2022-08-26T07:32:59.213Z,18.98
2022-08-26T07:38:01.647Z,18.85
2022-08-26T07:43:03.914Z,20.42
2022-08-26T07:48:05.708Z,14.77
2022-08-26T07:53:07.680Z,17.00
2022-08-26T07:58:12.351Z,17.10
2022-08-26T08:03:15.055Z,19.70
2022-08-26T08:08:26.264Z,15.43
2022-08-26T08:13:29.609Z,16.20
2022-08-26T08:18:31.775Z,20.08
2022-08-26T08:23:33.494Z,17.67
2022-08-26T08:28:38.853Z,16.20
2022-08-26T08:33:40.459Z,16.60
2022-08-26T08:38:44.310Z,20.13
2022-08-26T08:43:47.346Z,22.23
2022-08-26T08:48:56.777Z,15.73
2022-08-26T08:54:00.420Z,15.85
2022-08-26T08:59:25.081Z,17.35
2022-08-26T09:04:44.563Z,14.18
2022-08-26T09:09:57.623Z,14.93
2022-08-26T09:15:07.683Z,13.65
2022-08-26T09:20:20.468Z,10.52
2022-08-26T09:25:22.430Z,14.40
2022-08-26T09:30:31.595Z,18.80
2022-08-26T09:35:37.633Z,16.58
2022-08-26T09:40:39.946Z,11.88
2022-08-26T09:45:50.315Z,18.35
2022-08-26T09:51:03.751Z,10.85
2022-08-26T09:56:25.263Z,11.95
2022-08-26T10:01:34.870Z,15.57
2022-08-26T10:06:43.067Z,13.63
2022-08-26T10:11:51.738Z,10.98
2022-08-26T10:17:08.795Z,13.77
2022-08-26T10:22:44.328Z,17.83
2022-08-26T10:27:59.426Z,16.00
2022-08-26T10:33:08.212Z,14.93
2022-08-26T10:38:16.263Z,14.88
2022-08-26T10:43:23.662Z,13.70
2022-08-26T10:48:49.895Z,17.05
2022-08-26T10:54:01.111Z,16.20
2022-08-26T10:59:32.750Z,14.57
2022-08-26T11:05:02.859Z,14.35
2022-08-26T11:10:09.236Z,11.07
2022-08-26T11:15:20.007Z,13.77
2022-08-26T11:20:39.103Z,9.02
2022-08-26T11:26:01.190Z,10.23
2022-08-26T11:31:05.790Z,12.68
2022-08-26T11:36:12.361Z,15.02
2022-08-26T11:41:21.159Z,13.63
2022-08-26T11:46:28.598Z,15.32
2022-08-26T11:51:31.502Z,13.60
2022-08-26T11:56:35.644Z,13.05
2022-08-26T12:01:41.725Z,16.40
2022-08-26T12:06:50.826Z,11.55
2022-08-26T12:11:54.109Z,14.55
2022-08-26T12:17:10.070Z,9.05
2022-08-26T12:22:25.295Z,11.05
2022-08-26T12:27:34.529Z,6.82
2022-08-26T12:32:52.850Z,10.15
2022-08-26T12:38:00.321Z,10.55
2022-08-26T12:43:04.791Z,8.30
2022-08-26T12:48:13.453Z,8.82
2022-08-26T12:53:23.841Z,8.95
2022-08-26T12:58:28.317Z,13.05
2022-08-26T13:03:40.206Z,6.00
2022-08-26T13:08:53.770Z,8.65
2022-08-26T13:14:01.848Z,8.30
2022-08-26T13:19:06.428Z,10.63
2022-08-26T13:24:15.488Z,8.27
2022-08-26T13:29:18.172Z,9.57
2022-08-26T13:34:22.783Z,7.40
2022-08-26T13:39:25.692Z,9.75
2022-08-26T13:44:27.639Z,8.90
2022-08-26T13:49:29.519Z,8.30
2022-08-26T13:54:31.159Z,16.40
2022-08-26T13:59:32.794Z,8.02
2022-08-26T14:04:34.404Z,7.45
2022-08-26T14:09:38.400Z,7.55
2022-08-26T14:14:40.225Z,7.05
2022-08-26T14:19:45.783Z,7.10
2022-08-26T14:24:47.963Z,6.03
2022-08-26T14:29:49.600Z,5.72
2022-08-26T14:34:51.982Z,7.25
2022-08-26T14:39:53.811Z,7.60
2022-08-26T14:44:58.416Z,6.15
2022-08-26T14:50:00.057Z,6.45
2022-08-26T14:55:01.675Z,5.43
2022-08-26T15:00:04.230Z,7.25
2022-08-26T15:05:08.399Z,9.70
2022-08-26T15:10:13.622Z,8.93
2022-08-26T15:15:17.191Z,9.88
2022-08-26T15:20:19.416Z,9.45
2022-08-26T15:25:21.306Z,6.45
2022-08-26T15:30:22.943Z,6.35
2022-08-26T15:35:24.577Z,7.05
2022-08-26T15:40:26.542Z,6.70
2022-08-26T15:45:28.245Z,7.88
2022-08-26T15:50:30.048Z,9.25
2022-08-26T15:55:31.677Z,7.53
2022-08-26T16:00:33.306Z,7.43
2022-08-26T16:05:39.680Z,11.68
2022-08-26T16:10:49.811Z,6.90
2022-08-26T16:15:53.679Z,8.52
2022-08-26T16:21:12.682Z,6.97
2022-08-26T16:26:18.712Z,8.10
2022-08-26T16:31:21.513Z,9.45
2022-08-26T16:36:23.239Z,9.50
2022-08-26T16:41:27.203Z,7.05
2022-08-26T16:46:29.099Z,7.60
2022-08-26T16:51:32.395Z,8.63
2022-08-26T16:56:39.502Z,8.13
2022-08-26T17:01:41.192Z,8.73
2022-08-26T17:06:42.875Z,8.48
2022-08-26T17:11:44.594Z,9.35
2022-08-26T17:16:46.383Z,6.68
2022-08-26T17:21:48.151Z,6.40
2022-08-26T17:26:53.459Z,7.45
2022-08-26T17:31:57.244Z,7.43
2022-08-26T17:36:59.349Z,6.88
2022-08-26T17:42:00.955Z,10.60
2022-08-26T17:47:02.599Z,8.77
2022-08-26T17:52:07.490Z,8.68
2022-08-26T17:57:12.624Z,10.18
2022-08-26T18:02:14.234Z,12.40
2022-08-26T18:07:16.861Z,9.70
2022-08-26T18:12:18.488Z,9.38
2022-08-26T18:17:20.175Z,11.32
2022-08-26T18:22:23.132Z,9.52
2022-08-26T18:27:24.766Z,16.95
2022-08-26T18:32:26.454Z,12.73
2022-08-26T18:37:31.036Z,14.55
2022-08-26T18:42:33.710Z,15.85
2022-08-26T18:47:35.827Z,13.40
2022-08-26T18:52:37.670Z,13.55
2022-08-26T18:57:39.339Z,18.27
2022-08-26T19:02:41.126Z,13.10
2022-08-26T19:07:44.892Z,13.30
2022-08-26T19:12:51.919Z,15.77
2022-08-26T19:17:54.088Z,16.77
2022-08-26T19:22:59.666Z,16.00
2022-08-26T19:28:04.260Z,15.13
2022-08-26T19:33:09.147Z,16.20
2022-08-26T19:38:11.871Z,16.52
2022-08-26T19:43:13.598Z,18.30
2022-08-26T19:48:16.287Z,18.58
2022-08-26T19:53:19.699Z,15.13
2022-08-26T19:58:21.343Z,14.65
2022-08-26T20:03:23.837Z,13.88
2022-08-26T20:08:25.549Z,14.45
2022-08-26T20:13:28.158Z,11.98
2022-08-26T20:18:58.868Z,17.42
2022-08-26T20:24:07.111Z,15.50
2022-08-26T20:29:10.554Z,10.60
2022-08-26T20:34:14.290Z,10.93
2022-08-26T20:39:17.648Z,8.27
2022-08-26T20:44:19.656Z,9.02
2022-08-26T20:49:21.365Z,7.05
2022-08-26T20:54:28.279Z,7.13
2022-08-26T20:59:30.268Z,6.90
2022-08-26T21:04:32.271Z,6.70
2022-08-26T21:09:33.988Z,6.30
2022-08-26T21:14:35.682Z,6.90
2022-08-26T21:19:37.525Z,5.60
2022-08-26T21:24:39.145Z,5.95
2022-08-26T21:29:40.754Z,8.82
2022-08-26T21:34:42.387Z,8.20
2022-08-26T21:39:44.184Z,6.65
2022-08-26T21:44:50.830Z,7.68
2022-08-26T21:49:54.708Z,6.30
2022-08-26T21:55:01.202Z,8.23
2022-08-26T22:05:07.590Z,7.75
2022-08-26T22:10:09.354Z,9.32
2022-08-26T22:15:12.062Z,7.45
2022-08-26T22:20:16.540Z,8.68
2022-08-26T22:25:18.651Z,9.75
2022-08-26T22:30:20.434Z,8.48
2022-08-26T22:35:28.956Z,7.88
2022-08-26T22:40:31.416Z,8.30
2022-08-26T22:45:33.339Z,9.05
2022-08-26T22:50:35.439Z,10.23
2022-08-26T22:55:37.294Z,6.05
2022-08-26T23:00:39.920Z,34.83
2022-08-26T23:05:43.011Z,12.50
2022-08-26T23:10:47.207Z,8.98
2022-08-26T23:15:48.825Z,10.00
2022-08-26T23:20:50.443Z,9.73
2022-08-26T23:25:52.076Z,9.70
2022-08-26T23:30:54.092Z,10.25
2022-08-26T23:35:56.851Z,8.63
2022-08-26T23:40:58.942Z,9.73
2022-08-26T23:46:00.612Z,7.18
2022-08-26T23:51:21.256Z,9.57
2022-08-26T23:56:22.915Z,10.23
